sensor_id;sensor_type;location;lat;lon;timestamp;P1;durP1;ratioP1;P2;durP2;ratioP2
74335;SDS011;62755;-33.398;-70.572;2023-05-29T00:01:18;86.63;;;56.10;;
74335;SDS011;62755;-33.398;-70.572;2023-05-29T00:04:10;91.65;;;58.40;;
74335;SDS011;62755;-33.398;-70.572;2023-05-29T00:07:02;92.13;;;59.40;;
74335;SDS011;62755;-33.398;-70.572;2023-05-29T00:09:52;93.18;;;58.40;;
74335;SDS011;62755;-33.398;-70.572;2023-05-29T00:12:42;97.30;;;57.58;;
74335;SDS011;62755;-33.398;-70.572;2023-05-29T00:15:31;89.32;;;56.10;;
74335;SDS011;62755;-33.398;-70.572;2023-05-29T00:18:22;89.97;;;58.42;;
74335;SDS011;62755;-33.398;-70.572;2023-05-29T00:21:12;94.25;;;57.92;;
74335;SDS011;62755;-33.398;-70.572;2023-05-29T00:24:03;95.60;;;59.13;;
74335;SDS011;62755;-33.398;-70.572;2023-05-29T00:26:53;86.80;;;54.47;;
74335;SDS011;62755;-33.398;-70.572;2023-05-29T00:29:42;98.80;;;58.38;;
74335;SDS011;62755;-33.398;-70.572;2023-05-29T00:32:32;91.68;;;58.28;;
74335;SDS011;62755;-33.398;-70.572;2023-05-29T00:35:21;104.10;;;63.60;;
74335;SDS011;62755;-33.398;-70.572;2023-05-29T00:38:11;99.72;;;61.92;;
74335;SDS011;62755;-33.398;-70.572;2023-05-29T00:41:02;97.05;;;58.42;;
74335;SDS011;62755;-33.398;-70.572;2023-05-29T00:43:51;94.13;;;58.00;;
74335;SDS011;62755;-33.398;-70.572;2023-05-29T00:46:41;109.25;;;60.50;;
74335;SDS011;62755;-33.398;-70.572;2023-05-29T00:49:30;101.28;;;58.75;;
74335;SDS011;62755;-33.398;-70.572;2023-05-29T00:52:20;110.82;;;59.35;;
74335;SDS011;62755;-33.398;-70.572;2023-05-29T00:55:09;106.45;;;58.75;;
74335;SDS011;62755;-33.398;-70.572;2023-05-29T00:58:01;115.38;;;64.78;;
74335;SDS011;62755;-33.398;-70.572;2023-05-29T01:00:51;103.38;;;59.50;;
74335;SDS011;62755;-33.398;-70.572;2023-05-29T01:03:41;95.78;;;58.00;;
74335;SDS011;62755;-33.398;-70.572;2023-05-29T01:06:31;106.15;;;64.28;;
74335;SDS011;62755;-33.398;-70.572;2023-05-29T01:09:21;104.43;;;59.92;;
74335;SDS011;62755;-33.398;-70.572;2023-05-29T01:12:14;93.60;;;51.80;;
74335;SDS011;62755;-33.398;-70.572;2023-05-29T01:15:20;95.78;;;50.45;;
74335;SDS011;62755;-33.398;-70.572;2023-05-29T01:18:23;102.45;;;54.80;;
74335;SDS011;62755;-33.398;-70.572;2023-05-29T01:21:22;94.55;;;52.58;;
74335;SDS011;62755;-33.398;-70.572;2023-05-29T01:24:24;101.65;;;55.08;;
74335;SDS011;62755;-33.398;-70.572;2023-05-29T01:27:20;93.45;;;52.38;;
74335;SDS011;62755;-33.398;-70.572;2023-05-29T01:30:14;96.53;;;52.92;;
74335;SDS011;62755;-33.398;-70.572;2023-05-29T01:33:05;91.82;;;49.17;;
74335;SDS011;62755;-33.398;-70.572;2023-05-29T01:35:55;97.78;;;54.33;;
74335;SDS011;62755;-33.398;-70.572;2023-05-29T01:38:44;93.05;;;52.17;;
74335;SDS011;62755;-33.398;-70.572;2023-05-29T01:41:34;94.20;;;55.38;;
74335;SDS011;62755;-33.398;-70.572;2023-05-29T01:44:26;107.53;;;60.92;;
74335;SDS011;62755;-33.398;-70.572;2023-05-29T01:47:17;91.88;;;54.47;;
74335;SDS011;62755;-33.398;-70.572;2023-05-29T01:50:07;91.85;;;50.67;;
74335;SDS011;62755;-33.398;-70.572;2023-05-29T01:52:59;86.28;;;46.17;;
74335;SDS011;62755;-33.398;-70.572;2023-05-29T01:55:49;91.47;;;47.58;;
74335;SDS011;62755;-33.398;-70.572;2023-05-29T01:58:39;88.53;;;47.15;;
74335;SDS011;62755;-33.398;-70.572;2023-05-29T02:01:31;96.40;;;50.65;;
74335;SDS011;62755;-33.398;-70.572;2023-05-29T02:04:20;87.45;;;49.85;;
74335;SDS011;62755;-33.398;-70.572;2023-05-29T02:07:10;90.00;;;46.00;;
74335;SDS011;62755;-33.398;-70.572;2023-05-29T02:10:01;81.65;;;46.95;;
74335;SDS011;62755;-33.398;-70.572;2023-05-29T02:12:50;80.65;;;42.25;;
74335;SDS011;62755;-33.398;-70.572;2023-05-29T02:15:40;87.18;;;46.30;;
74335;SDS011;62755;-33.398;-70.572;2023-05-29T02:18:31;90.93;;;47.22;;
74335;SDS011;62755;-33.398;-70.572;2023-05-29T02:21:21;88.30;;;47.13;;
74335;SDS011;62755;-33.398;-70.572;2023-05-29T02:24:11;81.95;;;50.78;;
74335;SDS011;62755;-33.398;-70.572;2023-05-29T02:27:01;99.55;;;53.30;;
74335;SDS011;62755;-33.398;-70.572;2023-05-29T02:29:50;91.53;;;54.58;;
74335;SDS011;62755;-33.398;-70.572;2023-05-29T02:32:40;103.75;;;57.00;;
74335;SDS011;62755;-33.398;-70.572;2023-05-29T02:35:31;100.10;;;57.22;;
74335;SDS011;62755;-33.398;-70.572;2023-05-29T02:38:21;110.40;;;61.58;;
74335;SDS011;62755;-33.398;-70.572;2023-05-29T02:41:10;96.32;;;58.83;;
74335;SDS011;62755;-33.398;-70.572;2023-05-29T02:44:00;111.78;;;68.05;;
74335;SDS011;62755;-33.398;-70.572;2023-05-29T02:46:49;113.28;;;65.38;;
74335;SDS011;62755;-33.398;-70.572;2023-05-29T02:49:39;93.20;;;59.22;;
74335;SDS011;62755;-33.398;-70.572;2023-05-29T02:52:30;123.18;;;72.80;;
74335;SDS011;62755;-33.398;-70.572;2023-05-29T02:55:20;112.10;;;67.45;;
74335;SDS011;62755;-33.398;-70.572;2023-05-29T02:58:09;104.47;;;64.07;;
74335;SDS011;62755;-33.398;-70.572;2023-05-29T03:00:59;96.40;;;59.97;;
74335;SDS011;62755;-33.398;-70.572;2023-05-29T03:03:49;108.32;;;68.38;;
74335;SDS011;62755;-33.398;-70.572;2023-05-29T03:06:39;89.30;;;57.70;;
74335;SDS011;62755;-33.398;-70.572;2023-05-29T03:09:30;103.10;;;63.45;;
74335;SDS011;62755;-33.398;-70.572;2023-05-29T03:12:20;94.13;;;59.40;;
74335;SDS011;62755;-33.398;-70.572;2023-05-29T03:15:09;95.32;;;56.95;;
74335;SDS011;62755;-33.398;-70.572;2023-05-29T03:17:59;90.07;;;57.28;;
74335;SDS011;62755;-33.398;-70.572;2023-05-29T03:20:48;84.97;;;56.45;;
74335;SDS011;62755;-33.398;-70.572;2023-05-29T03:23:38;95.75;;;56.35;;
74335;SDS011;62755;-33.398;-70.572;2023-05-29T03:26:30;88.47;;;54.08;;
74335;SDS011;62755;-33.398;-70.572;2023-05-29T03:29:19;90.38;;;56.33;;
74335;SDS011;62755;-33.398;-70.572;2023-05-29T03:32:08;84.45;;;54.42;;
74335;SDS011;62755;-33.398;-70.572;2023-05-29T03:34:58;88.00;;;57.03;;
74335;SDS011;62755;-33.398;-70.572;2023-05-29T03:37:49;82.20;;;55.72;;
74335;SDS011;62755;-33.398;-70.572;2023-05-29T03:40:38;91.68;;;56.38;;
74335;SDS011;62755;-33.398;-70.572;2023-05-29T03:43:30;90.28;;;54.83;;
74335;SDS011;62755;-33.398;-70.572;2023-05-29T03:46:19;82.88;;;51.75;;
74335;SDS011;62755;-33.398;-70.572;2023-05-29T03:49:09;75.97;;;50.17;;
74335;SDS011;62755;-33.398;-70.572;2023-05-29T03:51:59;88.18;;;53.88;;
74335;SDS011;62755;-33.398;-70.572;2023-05-29T03:54:48;88.40;;;54.28;;
74335;SDS011;62755;-33.398;-70.572;2023-05-29T03:57:37;80.97;;;51.70;;
74335;SDS011;62755;-33.398;-70.572;2023-05-29T04:00:29;74.32;;;51.08;;
74335;SDS011;62755;-33.398;-70.572;2023-05-29T04:03:19;78.22;;;51.13;;
74335;SDS011;62755;-33.398;-70.572;2023-05-29T04:06:09;86.03;;;52.25;;
74335;SDS011;62755;-33.398;-70.572;2023-05-29T04:08:58;81.70;;;53.13;;
74335;SDS011;62755;-33.398;-70.572;2023-05-29T04:11:48;91.30;;;55.72;;
74335;SDS011;62755;-33.398;-70.572;2023-05-29T04:14:40;87.93;;;55.72;;
74335;SDS011;62755;-33.398;-70.572;2023-05-29T04:17:32;85.38;;;56.30;;
74335;SDS011;62755;-33.398;-70.572;2023-05-29T04:20:21;86.85;;;54.75;;
74335;SDS011;62755;-33.398;-70.572;2023-05-29T04:23:11;90.40;;;55.40;;
74335;SDS011;62755;-33.398;-70.572;2023-05-29T04:26:00;90.60;;;57.00;;
74335;SDS011;62755;-33.398;-70.572;2023-05-29T04:28:52;96.68;;;54.75;;
74335;SDS011;62755;-33.398;-70.572;2023-05-29T04:31:42;86.53;;;54.60;;
74335;SDS011;62755;-33.398;-70.572;2023-05-29T04:34:34;86.57;;;52.45;;
74335;SDS011;62755;-33.398;-70.572;2023-05-29T04:37:24;89.43;;;53.25;;
74335;SDS011;62755;-33.398;-70.572;2023-05-29T04:40:14;89.43;;;53.00;;
74335;SDS011;62755;-33.398;-70.572;2023-05-29T04:43:04;88.93;;;51.65;;
74335;SDS011;62755;-33.398;-70.572;2023-05-29T04:45:53;80.50;;;47.30;;
74335;SDS011;62755;-33.398;-70.572;2023-05-29T04:48:44;88.38;;;48.13;;
74335;SDS011;62755;-33.398;-70.572;2023-05-29T04:51:35;86.70;;;45.65;;
74335;SDS011;62755;-33.398;-70.572;2023-05-29T04:54:26;76.70;;;45.38;;
74335;SDS011;62755;-33.398;-70.572;2023-05-29T04:57:16;84.70;;;47.75;;
74335;SDS011;62755;-33.398;-70.572;2023-05-29T05:00:06;79.35;;;42.25;;
74335;SDS011;62755;-33.398;-70.572;2023-05-29T05:02:59;84.38;;;42.60;;
74335;SDS011;62755;-33.398;-70.572;2023-05-29T05:05:49;81.68;;;42.90;;
74335;SDS011;62755;-33.398;-70.572;2023-05-29T05:08:40;84.03;;;45.78;;
74335;SDS011;62755;-33.398;-70.572;2023-05-29T05:11:29;76.72;;;45.80;;
74335;SDS011;62755;-33.398;-70.572;2023-05-29T05:14:19;78.32;;;46.13;;
74335;SDS011;62755;-33.398;-70.572;2023-05-29T05:17:08;77.70;;;46.95;;
74335;SDS011;62755;-33.398;-70.572;2023-05-29T05:19:58;85.47;;;50.35;;
74335;SDS011;62755;-33.398;-70.572;2023-05-29T05:22:47;83.40;;;50.65;;
74335;SDS011;62755;-33.398;-70.572;2023-05-29T05:25:39;79.35;;;47.42;;
74335;SDS011;62755;-33.398;-70.572;2023-05-29T05:28:28;86.55;;;49.60;;
74335;SDS011;62755;-33.398;-70.572;2023-05-29T05:31:18;80.90;;;51.00;;
74335;SDS011;62755;-33.398;-70.572;2023-05-29T05:34:07;84.05;;;50.40;;
74335;SDS011;62755;-33.398;-70.572;2023-05-29T05:36:57;88.18;;;49.92;;
74335;SDS011;62755;-33.398;-70.572;2023-05-29T05:39:46;86.78;;;50.30;;
74335;SDS011;62755;-33.398;-70.572;2023-05-29T05:42:37;80.43;;;48.35;;
74335;SDS011;62755;-33.398;-70.572;2023-05-29T05:45:27;79.90;;;50.80;;
74335;SDS011;62755;-33.398;-70.572;2023-05-29T05:48:17;85.93;;;51.10;;
74335;SDS011;62755;-33.398;-70.572;2023-05-29T05:51:07;76.93;;;49.45;;
74335;SDS011;62755;-33.398;-70.572;2023-05-29T05:53:57;78.53;;;47.45;;
74335;SDS011;62755;-33.398;-70.572;2023-05-29T05:56:46;82.20;;;49.90;;
74335;SDS011;62755;-33.398;-70.572;2023-05-29T05:59:37;88.85;;;49.70;;
74335;SDS011;62755;-33.398;-70.572;2023-05-29T06:02:27;84.20;;;53.40;;
74335;SDS011;62755;-33.398;-70.572;2023-05-29T06:05:16;87.78;;;52.75;;
74335;SDS011;62755;-33.398;-70.572;2023-05-29T06:08:06;85.90;;;51.65;;
74335;SDS011;62755;-33.398;-70.572;2023-05-29T06:10:56;83.63;;;50.38;;
74335;SDS011;62755;-33.398;-70.572;2023-05-29T06:13:45;80.65;;;49.20;;
74335;SDS011;62755;-33.398;-70.572;2023-05-29T06:16:37;80.13;;;49.83;;
74335;SDS011;62755;-33.398;-70.572;2023-05-29T06:19:26;83.93;;;50.42;;
74335;SDS011;62755;-33.398;-70.572;2023-05-29T06:22:15;80.53;;;50.85;;
74335;SDS011;62755;-33.398;-70.572;2023-05-29T06:25:05;87.85;;;51.53;;
74335;SDS011;62755;-33.398;-70.572;2023-05-29T06:27:55;77.25;;;49.40;;
74335;SDS011;62755;-33.398;-70.572;2023-05-29T06:30:46;83.50;;;50.13;;
74335;SDS011;62755;-33.398;-70.572;2023-05-29T06:33:37;82.80;;;51.38;;
74335;SDS011;62755;-33.398;-70.572;2023-05-29T06:36:26;77.63;;;48.88;;
74335;SDS011;62755;-33.398;-70.572;2023-05-29T06:39:18;87.88;;;51.55;;
74335;SDS011;62755;-33.398;-70.572;2023-05-29T06:42:07;84.05;;;48.92;;
74335;SDS011;62755;-33.398;-70.572;2023-05-29T06:44:57;86.10;;;49.58;;
74335;SDS011;62755;-33.398;-70.572;2023-05-29T06:47:46;83.75;;;50.88;;
74335;SDS011;62755;-33.398;-70.572;2023-05-29T06:50:37;81.90;;;50.22;;
74335;SDS011;62755;-33.398;-70.572;2023-05-29T06:53:27;85.10;;;49.42;;
74335;SDS011;62755;-33.398;-70.572;2023-05-29T06:56:17;89.85;;;49.28;;
74335;SDS011;62755;-33.398;-70.572;2023-05-29T06:59:06;83.03;;;49.95;;
74335;SDS011;62755;-33.398;-70.572;2023-05-29T07:01:56;78.97;;;48.00;;
74335;SDS011;62755;-33.398;-70.572;2023-05-29T07:04:47;73.80;;;47.83;;
74335;SDS011;62755;-33.398;-70.572;2023-05-29T07:07:38;83.15;;;48.20;;
74335;SDS011;62755;-33.398;-70.572;2023-05-29T07:10:27;81.93;;;49.13;;
74335;SDS011;62755;-33.398;-70.572;2023-05-29T07:13:17;84.70;;;48.10;;
74335;SDS011;62755;-33.398;-70.572;2023-05-29T07:16:06;73.10;;;46.15;;
74335;SDS011;62755;-33.398;-70.572;2023-05-29T07:18:56;81.20;;;48.13;;
74335;SDS011;62755;-33.398;-70.572;2023-05-29T07:21:45;78.95;;;48.97;;
74335;SDS011;62755;-33.398;-70.572;2023-05-29T07:24:36;76.65;;;48.42;;
74335;SDS011;62755;-33.398;-70.572;2023-05-29T07:27:26;73.93;;;48.30;;
74335;SDS011;62755;-33.398;-70.572;2023-05-29T07:30:16;79.93;;;50.33;;
74335;SDS011;62755;-33.398;-70.572;2023-05-29T07:33:05;81.72;;;50.63;;
74335;SDS011;62755;-33.398;-70.572;2023-05-29T07:35:55;82.43;;;49.70;;
74335;SDS011;62755;-33.398;-70.572;2023-05-29T07:38:44;83.35;;;50.20;;
74335;SDS011;62755;-33.398;-70.572;2023-05-29T07:41:35;81.90;;;49.70;;
74335;SDS011;62755;-33.398;-70.572;2023-05-29T07:44:25;85.43;;;50.67;;
74335;SDS011;62755;-33.398;-70.572;2023-05-29T07:47:14;87.97;;;52.42;;
74335;SDS011;62755;-33.398;-70.572;2023-05-29T07:50:04;78.35;;;52.28;;
74335;SDS011;62755;-33.398;-70.572;2023-05-29T07:52:53;84.03;;;53.05;;
74335;SDS011;62755;-33.398;-70.572;2023-05-29T07:55:43;88.00;;;54.25;;
74335;SDS011;62755;-33.398;-70.572;2023-05-29T07:58:34;82.80;;;52.10;;
74335;SDS011;62755;-33.398;-70.572;2023-05-29T08:01:24;91.15;;;52.70;;
74335;SDS011;62755;-33.398;-70.572;2023-05-29T08:04:14;90.35;;;54.10;;
74335;SDS011;62755;-33.398;-70.572;2023-05-29T08:07:03;81.50;;;52.08;;
74335;SDS011;62755;-33.398;-70.572;2023-05-29T08:09:53;85.22;;;53.72;;
74335;SDS011;62755;-33.398;-70.572;2023-05-29T08:12:42;94.25;;;55.85;;
74335;SDS011;62755;-33.398;-70.572;2023-05-29T08:15:33;91.15;;;52.97;;
74335;SDS011;62755;-33.398;-70.572;2023-05-29T08:18:24;84.43;;;51.63;;
74335;SDS011;62755;-33.398;-70.572;2023-05-29T08:21:14;86.75;;;51.03;;
74335;SDS011;62755;-33.398;-70.572;2023-05-29T08:24:04;81.18;;;49.00;;
74335;SDS011;62755;-33.398;-70.572;2023-05-29T08:26:54;86.47;;;50.03;;
74335;SDS011;62755;-33.398;-70.572;2023-05-29T08:29:43;77.40;;;48.53;;
74335;SDS011;62755;-33.398;-70.572;2023-05-29T08:32:34;81.68;;;48.67;;
74335;SDS011;62755;-33.398;-70.572;2023-05-29T08:35:24;78.82;;;49.15;;
74335;SDS011;62755;-33.398;-70.572;2023-05-29T08:38:13;81.18;;;46.80;;
74335;SDS011;62755;-33.398;-70.572;2023-05-29T08:41:03;83.53;;;48.15;;
74335;SDS011;62755;-33.398;-70.572;2023-05-29T08:43:55;78.80;;;46.90;;
74335;SDS011;62755;-33.398;-70.572;2023-05-29T08:46:47;83.28;;;46.05;;
74335;SDS011;62755;-33.398;-70.572;2023-05-29T08:49:44;78.82;;;43.78;;
74335;SDS011;62755;-33.398;-70.572;2023-05-29T08:52:40;80.35;;;43.55;;
74335;SDS011;62755;-33.398;-70.572;2023-05-29T08:55:29;80.35;;;41.72;;
74335;SDS011;62755;-33.398;-70.572;2023-05-29T08:58:20;81.97;;;42.60;;
74335;SDS011;62755;-33.398;-70.572;2023-05-29T09:01:10;79.35;;;38.22;;
74335;SDS011;62755;-33.398;-70.572;2023-05-29T09:03:59;72.38;;;35.92;;
74335;SDS011;62755;-33.398;-70.572;2023-05-29T09:06:51;72.47;;;35.72;;
74335;SDS011;62755;-33.398;-70.572;2023-05-29T09:09:41;64.22;;;31.98;;
74335;SDS011;62755;-33.398;-70.572;2023-05-29T09:12:30;67.10;;;32.30;;
74335;SDS011;62755;-33.398;-70.572;2023-05-29T09:15:20;55.42;;;28.58;;
74335;SDS011;62755;-33.398;-70.572;2023-05-29T09:18:10;56.67;;;28.33;;
74335;SDS011;62755;-33.398;-70.572;2023-05-29T09:21:00;47.58;;;25.33;;
74335;SDS011;62755;-33.398;-70.572;2023-05-29T09:24:01;51.50;;;26.60;;
74335;SDS011;62755;-33.398;-70.572;2023-05-29T09:26:52;51.72;;;25.15;;
74335;SDS011;62755;-33.398;-70.572;2023-05-29T09:29:41;55.13;;;24.05;;
74335;SDS011;62755;-33.398;-70.572;2023-05-29T09:32:32;48.33;;;23.90;;
74335;SDS011;62755;-33.398;-70.572;2023-05-29T09:35:21;44.45;;;22.13;;
74335;SDS011;62755;-33.398;-70.572;2023-05-29T09:38:11;50.78;;;22.20;;
74335;SDS011;62755;-33.398;-70.572;2023-05-29T09:41:05;53.28;;;27.33;;
74335;SDS011;62755;-33.398;-70.572;2023-05-29T09:43:55;63.15;;;32.15;;
74335;SDS011;62755;-33.398;-70.572;2023-05-29T09:46:44;69.75;;;38.60;;
74335;SDS011;62755;-33.398;-70.572;2023-05-29T09:49:37;77.00;;;42.05;;
74335;SDS011;62755;-33.398;-70.572;2023-05-29T09:52:29;75.88;;;43.50;;
74335;SDS011;62755;-33.398;-70.572;2023-05-29T09:55:19;82.60;;;44.72;;
74335;SDS011;62755;-33.398;-70.572;2023-05-29T09:58:11;74.70;;;44.20;;
74335;SDS011;62755;-33.398;-70.572;2023-05-29T10:01:03;74.22;;;46.42;;
74335;SDS011;62755;-33.398;-70.572;2023-05-29T10:03:52;74.45;;;45.20;;
74335;SDS011;62755;-33.398;-70.572;2023-05-29T10:06:44;75.93;;;44.65;;
74335;SDS011;62755;-33.398;-70.572;2023-05-29T10:09:35;72.80;;;44.00;;
74335;SDS011;62755;-33.398;-70.572;2023-05-29T10:12:30;76.78;;;44.92;;
74335;SDS011;62755;-33.398;-70.572;2023-05-29T10:15:24;81.38;;;45.25;;
74335;SDS011;62755;-33.398;-70.572;2023-05-29T10:18:19;73.95;;;44.05;;
74335;SDS011;62755;-33.398;-70.572;2023-05-29T10:21:12;72.15;;;41.80;;
74335;SDS011;62755;-33.398;-70.572;2023-05-29T10:24:02;71.47;;;41.72;;
74335;SDS011;62755;-33.398;-70.572;2023-05-29T10:26:56;71.03;;;39.38;;
74335;SDS011;62755;-33.398;-70.572;2023-05-29T10:29:48;74.00;;;43.10;;
74335;SDS011;62755;-33.398;-70.572;2023-05-29T10:32:48;82.18;;;43.15;;
74335;SDS011;62755;-33.398;-70.572;2023-05-29T10:35:52;76.47;;;44.92;;
74335;SDS011;62755;-33.398;-70.572;2023-05-29T10:38:45;67.57;;;40.20;;
74335;SDS011;62755;-33.398;-70.572;2023-05-29T10:41:36;69.25;;;40.00;;
74335;SDS011;62755;-33.398;-70.572;2023-05-29T10:44:39;75.88;;;44.75;;
74335;SDS011;62755;-33.398;-70.572;2023-05-29T10:47:29;74.18;;;44.83;;
74335;SDS011;62755;-33.398;-70.572;2023-05-29T10:50:26;75.20;;;46.38;;
74335;SDS011;62755;-33.398;-70.572;2023-05-29T10:53:24;81.10;;;48.50;;
74335;SDS011;62755;-33.398;-70.572;2023-05-29T10:56:15;80.70;;;47.28;;
74335;SDS011;62755;-33.398;-70.572;2023-05-29T10:59:12;78.07;;;47.72;;
74335;SDS011;62755;-33.398;-70.572;2023-05-29T11:02:01;84.43;;;46.90;;
74335;SDS011;62755;-33.398;-70.572;2023-05-29T11:05:06;80.28;;;45.92;;
74335;SDS011;62755;-33.398;-70.572;2023-05-29T11:08:12;73.07;;;44.60;;
74335;SDS011;62755;-33.398;-70.572;2023-05-29T11:11:02;82.90;;;47.17;;
74335;SDS011;62755;-33.398;-70.572;2023-05-29T11:13:52;79.85;;;48.60;;
74335;SDS011;62755;-33.398;-70.572;2023-05-29T11:16:42;71.80;;;46.20;;
74335;SDS011;62755;-33.398;-70.572;2023-05-29T11:19:32;76.65;;;47.00;;
74335;SDS011;62755;-33.398;-70.572;2023-05-29T11:22:23;78.65;;;47.85;;
74335;SDS011;62755;-33.398;-70.572;2023-05-29T11:25:22;85.90;;;46.30;;
74335;SDS011;62755;-33.398;-70.572;2023-05-29T11:28:12;77.45;;;46.92;;
74335;SDS011;62755;-33.398;-70.572;2023-05-29T11:31:01;76.60;;;47.00;;
74335;SDS011;62755;-33.398;-70.572;2023-05-29T11:33:55;79.38;;;48.58;;
74335;SDS011;62755;-33.398;-70.572;2023-05-29T11:36:51;83.47;;;48.00;;
74335;SDS011;62755;-33.398;-70.572;2023-05-29T11:39:41;72.85;;;46.58;;
74335;SDS011;62755;-33.398;-70.572;2023-05-29T11:42:32;80.75;;;47.88;;
74335;SDS011;62755;-33.398;-70.572;2023-05-29T11:45:22;81.97;;;48.80;;
74335;SDS011;62755;-33.398;-70.572;2023-05-29T11:48:11;77.72;;;46.17;;
74335;SDS011;62755;-33.398;-70.572;2023-05-29T11:51:03;78.50;;;46.95;;
74335;SDS011;62755;-33.398;-70.572;2023-05-29T11:53:54;77.72;;;47.85;;
74335;SDS011;62755;-33.398;-70.572;2023-05-29T11:56:47;89.38;;;50.42;;
74335;SDS011;62755;-33.398;-70.572;2023-05-29T11:59:40;86.13;;;49.78;;
74335;SDS011;62755;-33.398;-70.572;2023-05-29T12:02:31;88.25;;;47.65;;
74335;SDS011;62755;-33.398;-70.572;2023-05-29T12:05:20;81.22;;;46.90;;
74335;SDS011;62755;-33.398;-70.572;2023-05-29T12:08:10;83.90;;;46.55;;
74335;SDS011;62755;-33.398;-70.572;2023-05-29T12:10:59;77.55;;;46.05;;
74335;SDS011;62755;-33.398;-70.572;2023-05-29T12:13:55;80.60;;;47.45;;
74335;SDS011;62755;-33.398;-70.572;2023-05-29T12:16:47;90.18;;;46.17;;
74335;SDS011;62755;-33.398;-70.572;2023-05-29T12:19:37;85.30;;;45.97;;
74335;SDS011;62755;-33.398;-70.572;2023-05-29T12:22:33;78.70;;;44.40;;
74335;SDS011;62755;-33.398;-70.572;2023-05-29T12:25:23;80.90;;;44.92;;
74335;SDS011;62755;-33.398;-70.572;2023-05-29T12:28:16;82.07;;;45.33;;
74335;SDS011;62755;-33.398;-70.572;2023-05-29T12:31:06;76.75;;;44.03;;
74335;SDS011;62755;-33.398;-70.572;2023-05-29T12:34:00;75.38;;;43.35;;
74335;SDS011;62755;-33.398;-70.572;2023-05-29T12:36:50;77.97;;;42.00;;
74335;SDS011;62755;-33.398;-70.572;2023-05-29T12:39:39;89.22;;;45.20;;
74335;SDS011;62755;-33.398;-70.572;2023-05-29T12:42:29;72.75;;;40.60;;
74335;SDS011;62755;-33.398;-70.572;2023-05-29T12:45:18;81.43;;;43.10;;
74335;SDS011;62755;-33.398;-70.572;2023-05-29T12:48:09;83.85;;;41.58;;
74335;SDS011;62755;-33.398;-70.572;2023-05-29T12:51:00;72.60;;;41.08;;
74335;SDS011;62755;-33.398;-70.572;2023-05-29T12:53:54;75.10;;;42.17;;
74335;SDS011;62755;-33.398;-70.572;2023-05-29T12:56:44;79.45;;;41.72;;
74335;SDS011;62755;-33.398;-70.572;2023-05-29T12:59:36;71.10;;;40.58;;
74335;SDS011;62755;-33.398;-70.572;2023-05-29T13:02:26;75.25;;;40.38;;
74335;SDS011;62755;-33.398;-70.572;2023-05-29T13:05:15;65.22;;;37.95;;
74335;SDS011;62755;-33.398;-70.572;2023-05-29T13:08:10;58.17;;;36.65;;
74335;SDS011;62755;-33.398;-70.572;2023-05-29T13:10:59;72.57;;;36.88;;
74335;SDS011;62755;-33.398;-70.572;2023-05-29T13:13:49;60.53;;;34.85;;
74335;SDS011;62755;-33.398;-70.572;2023-05-29T13:16:38;68.65;;;36.42;;
74335;SDS011;62755;-33.398;-70.572;2023-05-29T13:19:27;57.40;;;34.13;;
74335;SDS011;62755;-33.398;-70.572;2023-05-29T13:22:17;51.90;;;30.70;;
74335;SDS011;62755;-33.398;-70.572;2023-05-29T13:25:08;54.17;;;31.65;;
74335;SDS011;62755;-33.398;-70.572;2023-05-29T13:27:59;60.30;;;35.75;;
74335;SDS011;62755;-33.398;-70.572;2023-05-29T13:30:49;60.60;;;34.92;;
74335;SDS011;62755;-33.398;-70.572;2023-05-29T13:33:38;62.90;;;32.63;;
74335;SDS011;62755;-33.398;-70.572;2023-05-29T13:36:27;55.63;;;32.17;;
74335;SDS011;62755;-33.398;-70.572;2023-05-29T13:39:17;68.38;;;38.75;;
74335;SDS011;62755;-33.398;-70.572;2023-05-29T13:42:08;72.28;;;40.03;;
74335;SDS011;62755;-33.398;-70.572;2023-05-29T13:44:57;74.88;;;43.50;;
74335;SDS011;62755;-33.398;-70.572;2023-05-29T13:47:47;73.88;;;44.22;;
74335;SDS011;62755;-33.398;-70.572;2023-05-29T13:50:36;73.85;;;42.60;;
74335;SDS011;62755;-33.398;-70.572;2023-05-29T13:53:25;75.63;;;44.28;;
74335;SDS011;62755;-33.398;-70.572;2023-05-29T13:56:15;74.90;;;45.78;;
74335;SDS011;62755;-33.398;-70.572;2023-05-29T13:59:06;78.75;;;46.50;;
74335;SDS011;62755;-33.398;-70.572;2023-05-29T14:01:55;75.25;;;44.03;;
74335;SDS011;62755;-33.398;-70.572;2023-05-29T14:04:45;78.20;;;44.88;;
74335;SDS011;62755;-33.398;-70.572;2023-05-29T14:07:35;79.80;;;45.63;;
74335;SDS011;62755;-33.398;-70.572;2023-05-29T14:10:24;89.43;;;47.40;;
74335;SDS011;62755;-33.398;-70.572;2023-05-29T14:13:14;85.28;;;47.55;;
74335;SDS011;62755;-33.398;-70.572;2023-05-29T14:16:05;83.65;;;47.63;;
74335;SDS011;62755;-33.398;-70.572;2023-05-29T14:18:54;83.13;;;48.17;;
74335;SDS011;62755;-33.398;-70.572;2023-05-29T14:21:44;84.88;;;48.88;;
74335;SDS011;62755;-33.398;-70.572;2023-05-29T14:24:33;78.10;;;48.42;;
74335;SDS011;62755;-33.398;-70.572;2023-05-29T14:27:23;79.70;;;48.33;;
74335;SDS011;62755;-33.398;-70.572;2023-05-29T14:30:12;80.82;;;48.30;;
74335;SDS011;62755;-33.398;-70.572;2023-05-29T14:33:03;80.25;;;50.20;;
74335;SDS011;62755;-33.398;-70.572;2023-05-29T14:35:54;85.75;;;51.45;;
74335;SDS011;62755;-33.398;-70.572;2023-05-29T14:38:44;91.20;;;50.55;;
74335;SDS011;62755;-33.398;-70.572;2023-05-29T14:41:35;83.90;;;50.35;;
74335;SDS011;62755;-33.398;-70.572;2023-05-29T14:44:24;87.45;;;50.92;;
74335;SDS011;62755;-33.398;-70.572;2023-05-29T14:47:14;84.75;;;49.63;;
74335;SDS011;62755;-33.398;-70.572;2023-05-29T14:50:06;88.22;;;50.33;;
74335;SDS011;62755;-33.398;-70.572;2023-05-29T14:52:57;81.35;;;49.47;;
74335;SDS011;62755;-33.398;-70.572;2023-05-29T14:55:46;85.53;;;50.72;;
74335;SDS011;62755;-33.398;-70.572;2023-05-29T14:58:36;84.82;;;51.25;;
74335;SDS011;62755;-33.398;-70.572;2023-05-29T15:01:26;89.28;;;52.00;;
74335;SDS011;62755;-33.398;-70.572;2023-05-29T15:04:16;89.40;;;50.72;;
74335;SDS011;62755;-33.398;-70.572;2023-05-29T15:07:07;80.43;;;48.33;;
74335;SDS011;62755;-33.398;-70.572;2023-05-29T15:09:56;86.85;;;51.58;;
74335;SDS011;62755;-33.398;-70.572;2023-05-29T15:12:46;85.65;;;49.75;;
74335;SDS011;62755;-33.398;-70.572;2023-05-29T15:15:35;84.38;;;51.50;;
74335;SDS011;62755;-33.398;-70.572;2023-05-29T15:18:25;88.70;;;52.72;;
74335;SDS011;62755;-33.398;-70.572;2023-05-29T15:21:14;84.82;;;50.80;;
74335;SDS011;62755;-33.398;-70.572;2023-05-29T15:24:06;90.75;;;51.13;;
74335;SDS011;62755;-33.398;-70.572;2023-05-29T15:26:55;85.07;;;52.72;;
74335;SDS011;62755;-33.398;-70.572;2023-05-29T15:29:45;96.18;;;53.50;;
74335;SDS011;62755;-33.398;-70.572;2023-05-29T15:32:34;89.72;;;53.03;;
74335;SDS011;62755;-33.398;-70.572;2023-05-29T15:35:24;98.40;;;54.45;;
74335;SDS011;62755;-33.398;-70.572;2023-05-29T15:38:13;98.90;;;52.03;;
74335;SDS011;62755;-33.398;-70.572;2023-05-29T15:41:05;87.50;;;48.00;;
74335;SDS011;62755;-33.398;-70.572;2023-05-29T15:43:54;92.45;;;48.78;;
74335;SDS011;62755;-33.398;-70.572;2023-05-29T15:46:44;89.95;;;45.38;;
74335;SDS011;62755;-33.398;-70.572;2023-05-29T15:49:33;97.95;;;48.90;;
74335;SDS011;62755;-33.398;-70.572;2023-05-29T15:52:23;89.20;;;47.53;;
74335;SDS011;62755;-33.398;-70.572;2023-05-29T15:55:13;87.65;;;45.75;;